Terminal Aerodrome Forecast
Issued by NWS

Home | Current Version | Previous Version | Text Only | Print | Product List | Glossary On
Versions: 1 2 3 4 5 6 7 8 9 10 11 12 13 14 15 16
000
FTUS46 KMTR 282334
TAFSTS
TAF
KSTS 282334Z 2900/2924 17012KT P6SM SKC
     FM290500 16006KT P6SM SCT012
     FM290700 16003KT P6SM OVC008
     FM290900 VRB03KT P6SM OVC006
     FM291400 00000KT 2SM BR OVC004
     FM291800 00000KT P6SM SKC
     FM292000 20008KT P6SM SKC
     FM292200 16012KT P6SM SKC=

USA.gov is the U.S. government's official web portal to all federal, state and local government web resources and services.